Time;durP1;ratioP1;P1;durP2;ratioP2;P2;SDS_P1;SDS_P2;PMS_P1;PMS_P2;Temp;Humidity;BMP_temperature;BMP_pressure;BME280_temperature;BME280_humidity;BME280_pressure;Samples;Min_cycle;Max_cycle;Signal;HPM_P1;HPM_P2
2021/06/17 00:02:38;;;;;;;;;;;15.00;99.90;;;;;;8294072;28;19909;-65
2021/06/17 00:06:39;;;;;;;;;;;15.20;99.90;;;;;;8294119;28;20081;-65
2021/06/17 00:10:43;;;;;;;;;;;15.20;99.90;;;;;;8294169;28;20495;-64
2021/06/17 00:14:44;;;;;;;;;;;15.00;99.90;;;;;;8293199;28;19909;-65
2021/06/17 00:18:44;;;;;;;;;;;15.20;99.90;;;;;;8293578;28;20383;-65
2021/06/17 00:22:45;;;;;;;;;;;15.00;99.90;;;;;;8292550;28;20048;-65
2021/06/17 00:26:45;;;;;;;;;;;14.80;99.90;;;;;;8293517;28;19909;-65
2021/06/17 00:30:46;;;;;;;;;;;14.70;99.90;;;;;;8293564;28;20015;-65
2021/06/17 00:34:47;;;;;;;;;;;14.50;99.90;;;;;;8293244;28;19956;-65
2021/06/17 00:38:47;;;;;;;;;;;14.70;99.90;;;;;;8295504;28;19920;-65
2021/06/17 00:42:49;;;;;;;;;;;14.50;99.90;;;;;;8299990;28;19916;-65
2021/06/17 00:46:50;;;;;;;;;;;14.30;99.90;;;;;;8299698;28;20261;-65
2021/06/17 00:50:51;;;;;;;;;;;14.30;99.90;;;;;;8299254;28;19910;-65
2021/06/17 00:54:55;;;;;;;;;;;14.40;99.90;;;;;;8299664;28;20648;-65
2021/06/17 00:58:57;;;;;;;;;;;14.70;99.90;;;;;;8298740;28;19980;-64
2021/06/17 01:02:58;;;;;;;;;;;14.80;99.90;;;;;;8299122;28;19920;-65
2021/06/17 01:06:58;;;;;;;;;;;14.50;99.90;;;;;;8299311;28;19968;-65
2021/06/17 01:11:11;;;;;;;;;;;14.30;99.90;;;;;;8297922;28;19948;-65
2021/06/17 01:15:14;;;;;;;;;;;14.40;99.90;;;;;;8299144;28;19963;-65
2021/06/17 01:19:30;;;;;;;;;;;14.50;99.90;;;;;;8297468;28;20007;-65
2021/06/17 01:23:49;;;;;;;;;;;14.40;99.90;;;;;;8299203;28;20398;-65
2021/06/17 01:27:56;;;;;;;;;;;14.20;99.90;;;;;;8297269;28;20002;-65
2021/06/17 01:31:56;;;;;;;;;;;13.90;99.90;;;;;;8297493;28;20231;-65
2021/06/17 01:35:59;;;;;;;;;;;14.00;99.90;;;;;;8298189;28;19916;-64
2021/06/17 01:40:00;;;;;;;;;;;14.10;99.90;;;;;;8298682;28;19914;-64
2021/06/17 01:44:01;;;;;;;;;;;13.90;99.90;;;;;;8296973;28;19909;-64
2021/06/17 01:48:01;;;;;;;;;;;13.90;99.90;;;;;;8297545;28;20042;-64
2021/06/17 01:52:03;;;;;;;;;;;13.90;99.90;;;;;;8296546;28;19972;-64
2021/06/17 01:56:07;;;;;;;;;;;13.80;99.90;;;;;;8297648;28;20032;-66
2021/06/17 02:00:08;;;;;;;;;;;13.90;99.90;;;;;;8297537;28;19936;-65
2021/06/17 02:04:09;;;;;;;;;;;13.70;99.90;;;;;;8297464;28;19909;-65
2021/06/17 02:08:10;;;;;;;;;;;13.90;99.90;;;;;;8297203;28;19966;-65
2021/06/17 02:12:11;;;;;;;;;;;13.90;99.90;;;;;;8296271;28;19910;-64
2021/06/17 02:16:12;;;;;;;;;;;13.80;99.90;;;;;;8296953;28;19943;-65
2021/06/17 02:20:13;;;;;;;;;;;13.60;99.90;;;;;;8296974;28;19951;-65
2021/06/17 02:24:14;;;;;;;;;;;13.40;99.90;;;;;;8297114;28;19909;-65
2021/06/17 02:28:15;;;;;;;;;;;13.40;99.90;;;;;;8295291;28;19945;-64
2021/06/17 02:32:18;;;;;;;;;;;13.40;99.90;;;;;;8296947;28;19921;-64
2021/06/17 02:36:22;;;;;;;;;;;13.80;99.90;;;;;;8296189;28;20037;-65
2021/06/17 02:40:24;;;;;;;;;;;13.70;99.90;;;;;;8296427;28;19956;-64
2021/06/17 02:44:25;;;;;;;;;;;13.70;99.90;;;;;;8296963;28;19956;-64
2021/06/17 02:48:26;;;;;;;;;;;13.40;99.90;;;;;;8295593;28;20285;-64
2021/06/17 02:52:26;;;;;;;;;;;13.40;99.90;;;;;;8296457;28;19963;-65
2021/06/17 02:56:45;;;;;;;;;;;13.00;99.90;;;;;;8295287;28;19959;-65
2021/06/17 03:00:52;;;;;;;;;;;12.80;99.90;;;;;;8295182;28;19941;-64
2021/06/17 03:04:54;;;;;;;;;;;12.90;99.90;;;;;;8296067;28;20295;-64
2021/06/17 03:08:56;;;;;;;;;;;12.80;99.90;;;;;;8295712;28;20000;-64
2021/06/17 03:13:00;;;;;;;;;;;12.80;99.90;;;;;;8294922;28;19913;-64
2021/06/17 03:17:01;;;;;;;;;;;12.90;99.90;;;;;;8296048;28;19937;-64
2021/06/17 03:21:02;;;;;;;;;;;12.70;99.90;;;;;;8295859;28;19913;-65
2021/06/17 03:25:05;;;;;;;;;;;12.60;99.90;;;;;;8295849;28;20395;-64
2021/06/17 03:29:06;;;;;;;;;;;12.50;99.90;;;;;;8293968;28;20360;-65
2021/06/17 03:33:06;;;;;;;;;;;12.70;99.90;;;;;;8298251;28;20291;-64
2021/06/17 03:37:07;;;;;;;;;;;12.80;99.90;;;;;;8295003;28;19943;-65
2021/06/17 03:41:09;;;;;;;;;;;12.60;99.90;;;;;;8294936;28;19975;-64
2021/06/17 03:45:10;;;;;;;;;;;12.90;99.90;;;;;;8294857;28;19916;-64
2021/06/17 03:49:10;;;;;;;;;;;13.00;99.90;;;;;;8294231;28;20406;-64
2021/06/17 03:53:13;;;;;;;;;;;12.90;99.90;;;;;;8294684;28;19992;-64
2021/06/17 03:57:14;;;;;;;;;;;13.10;99.90;;;;;;8292886;28;19924;-64
2021/06/17 04:01:16;;;;;;;;;;;13.20;99.90;;;;;;8297313;28;19961;-64
2021/06/17 04:05:16;;;;;;;;;;;13.40;99.90;;;;;;8293121;28;20325;-64
2021/06/17 04:09:28;;;;;;;;;;;13.90;99.90;;;;;;8292808;28;20009;-64
2021/06/17 04:13:32;;;;;;;;;;;13.90;99.90;;;;;;8291826;28;19944;-64
2021/06/17 04:17:43;;;;;;;;;;;13.80;99.90;;;;;;8310207;28;19964;-65
2021/06/17 04:21:44;;;;;;;;;;;14.00;99.90;;;;;;8326536;28;19955;-64
2021/06/17 04:25:45;;;;;;;;;;;14.20;99.90;;;;;;8295862;28;20359;-64
2021/06/17 04:29:45;;;;;;;;;;;14.60;99.90;;;;;;8295876;28;20000;-64
2021/06/17 04:33:47;;;;;;;;;;;15.20;99.90;;;;;;8313349;28;19954;-64
2021/06/17 04:37:48;;;;;;;;;;;15.60;99.90;;;;;;8316854;28;19920;-65
2021/06/17 04:41:48;;;;;;;;;;;16.00;99.90;;;;;;8323816;28;19917;-65
2021/06/17 04:45:51;;;;;;;;;;;16.30;99.90;;;;;;8297525;28;20014;-64
2021/06/17 04:49:51;;;;;;;;;;;16.60;99.90;;;;;;8319550;28;19917;-74
2021/06/17 04:53:53;;;;;;;;;;;16.80;99.90;;;;;;8308971;28;20023;-74
2021/06/17 04:57:54;;;;;;;;;;;16.80;99.90;;;;;;8313095;28;19932;-74
2021/06/17 05:01:56;;;;;;;;;;;16.80;99.90;;;;;;8307455;28;19940;-74
2021/06/17 05:05:59;;;;;;;;;;;16.80;99.90;;;;;;8298309;28;20002;-73
2021/06/17 05:14:19;;;;;;;;;;;17.10;99.90;;;;;;8318434;28;20484;-74
2021/06/17 05:18:23;;;;;;;;;;;17.20;99.90;;;;;;8299743;28;19971;-71
2021/06/17 05:22:24;;;;;;;;;;;17.40;99.90;;;;;;8321428;28;20044;-75
2021/06/17 05:26:24;;;;;;;;;;;17.80;99.90;;;;;;8302101;28;20376;-73
2021/06/17 05:30:25;;;;;;;;;;;18.10;99.90;;;;;;8298083;28;19921;-73
2021/06/17 05:34:25;;;;;;;;;;;18.20;99.90;;;;;;8300614;28;19913;-72
2021/06/17 05:38:26;;;;;;;;;;;18.30;99.90;;;;;;8301678;28;19975;-73
2021/06/17 05:42:26;;;;;;;;;;;18.60;99.90;;;;;;8327689;28;20053;-72
2021/06/17 05:46:27;;;;;;;;;;;18.90;99.90;;;;;;8311024;28;19992;-74
2021/06/17 05:50:27;;;;;;;;;;;19.20;99.90;;;;;;8294862;28;20295;-72
2021/06/17 05:54:28;;;;;;;;;;;19.50;99.90;;;;;;8295959;28;19910;-72
2021/06/17 05:58:29;;;;;;;;;;;19.70;99.90;;;;;;8296813;28;19954;-72
2021/06/17 06:02:29;;;;;;;;;;;19.90;99.90;;;;;;8295942;28;19996;-74
2021/06/17 06:06:31;;;;;;;;;;;20.20;99.90;;;;;;8290513;28;20508;-72
2021/06/17 06:10:32;;;;;;;;;;;20.40;99.90;;;;;;8298629;28;19921;-69
2021/06/17 06:14:32;;;;;;;;;;;20.70;99.90;;;;;;8295618;28;20037;-73
2021/06/17 06:18:34;;;;;;;;;;;20.70;99.90;;;;;;8312130;28;19920;-70
2021/06/17 06:22:34;;;;;;;;;;;20.90;99.90;;;;;;8325602;28;19944;-73
2021/06/17 06:26:35;;;;;;;;;;;21.10;99.90;;;;;;8315051;28;19921;-70
2021/06/17 06:30:36;;;;;;;;;;;21.30;99.90;;;;;;8294677;28;19999;-72
2021/06/17 06:34:36;;;;;;;;;;;21.60;99.90;;;;;;8288598;28;19910;-70
2021/06/17 06:38:37;;;;;;;;;;;21.80;99.90;;;;;;8292179;28;19968;-70
2021/06/17 06:42:37;;;;;;;;;;;22.10;99.90;;;;;;8295370;28;19914;-72
2021/06/17 06:46:38;;;;;;;;;;;22.30;99.90;;;;;;8299991;28;19953;-73
2021/06/17 06:50:39;;;;;;;;;;;22.70;99.90;;;;;;8284999;28;19952;-71
2021/06/17 06:54:39;;;;;;;;;;;22.90;99.90;;;;;;8290127;28;19914;-70
2021/06/17 06:58:40;;;;;;;;;;;23.10;99.90;;;;;;8291765;28;19921;-71
2021/06/17 07:02:41;;;;;;;;;;;23.30;99.90;;;;;;8294185;28;19924;-71
2021/06/17 07:06:42;;;;;;;;;;;23.60;99.90;;;;;;8299903;28;19976;-71
2021/06/17 07:10:45;;;;;;;;;;;23.80;99.90;;;;;;8295023;28;20038;-71
2021/06/17 07:14:46;;;;;;;;;;;24.20;99.90;;;;;;8325759;28;19913;-71
2021/06/17 07:18:46;;;;;;;;;;;24.30;99.90;;;;;;8313545;28;20013;-71
2021/06/17 07:22:46;;;;;;;;;;;24.50;99.90;;;;;;8306171;28;19923;-71
2021/06/17 07:26:50;;;;;;;;;;;24.60;99.90;;;;;;8303415;28;19921;-70
2021/06/17 07:30:51;;;;;;;;;;;24.90;99.90;;;;;;8295128;28;20043;-71
2021/06/17 07:34:51;;;;;;;;;;;25.00;99.90;;;;;;8295962;28;19917;-71
2021/06/17 07:38:52;;;;;;;;;;;25.30;99.90;;;;;;8298522;28;19971;-71
2021/06/17 07:42:53;;;;;;;;;;;25.50;99.90;;;;;;8314702;28;20015;-70
2021/06/17 07:46:53;;;;;;;;;;;25.70;99.90;;;;;;8319716;28;19952;-72
2021/06/17 07:50:54;;;;;;;;;;;25.80;99.90;;;;;;8304736;28;19936;-68
2021/06/17 07:54:54;;;;;;;;;;;26.10;99.90;;;;;;8302470;28;19960;-70
2021/06/17 07:58:55;;;;;;;;;;;26.20;99.90;;;;;;8364511;22;19936;-68
2021/06/17 08:02:57;;;;;;;;;;;26.40;99.90;;;;;;8372517;28;19972;-69
2021/06/17 08:06:57;;;;;;;;;;;26.50;99.90;;;;;;8373847;28;20440;-67
2021/06/17 08:10:58;;;;;;;;;;;26.50;99.90;;;;;;8375324;28;19952;-67
2021/06/17 08:14:58;;;;;;;;;;;26.70;99.90;;;;;;8375059;28;19942;-68
2021/06/17 08:18:58;;;;;;;;;;;26.60;99.90;;;;;;8381686;28;19961;-67
2021/06/17 08:22:59;;;;;;;;;;;26.60;99.90;;;;;;8373627;28;19912;-68
2021/06/17 08:27:00;;;;;;;;;;;26.60;99.90;;;;;;8374378;28;19909;-68
2021/06/17 08:31:00;;;;;;;;;;;26.80;99.90;;;;;;8374676;28;19908;-67
2021/06/17 08:35:01;;;;;;;;;;;27.00;99.90;;;;;;8372611;28;19917;-69
2021/06/17 08:39:01;;;;;;;;;;;27.40;99.90;;;;;;8368609;28;19921;-68
2021/06/17 08:43:03;;;;;;;;;;;27.30;99.90;;;;;;8358585;28;19917;-68
2021/06/17 08:47:04;;;;;;;;;;;27.40;99.90;;;;;;8356974;28;19913;-68
2021/06/17 08:51:04;;;;;;;;;;;27.50;99.90;;;;;;8355533;28;19924;-67
2021/06/17 08:55:14;;;;;;;;;;;27.90;99.90;;;;;;8371873;28;19920;-67
2021/06/17 08:59:15;;;;;;;;;;;27.70;99.90;;;;;;8373316;28;19970;-68
2021/06/17 09:03:16;;;;;;;;;;;27.80;99.90;;;;;;8377978;28;19966;-68
2021/06/17 09:07:17;;;;;;;;;;;28.10;99.90;;;;;;8364560;28;19920;-67
2021/06/17 09:11:18;;;;;;;;;;;28.00;99.90;;;;;;8371950;28;19912;-67
2021/06/17 09:15:37;;;;;;;;;;;28.40;99.90;;;;;;8363161;28;20415;-68
2021/06/17 09:19:39;;;;;;;;;;;28.70;99.90;;;;;;8361775;28;20375;-69
2021/06/17 09:23:44;;;;;;;;;;;29.00;99.90;;;;;;8370639;28;19918;-68
2021/06/17 09:27:45;;;;;;;;;;;29.10;99.90;;;;;;8384331;28;19912;-68
2021/06/17 09:31:45;;;;;;;;;;;29.30;99.90;;;;;;8371738;28;19913;-67
2021/06/17 09:35:47;;;;;;;;;;;29.40;98.80;;;;;;8364068;28;20019;-67
2021/06/17 09:39:48;;;;;;;;;;;29.40;99.90;;;;;;8364209;28;19917;-66
2021/06/17 09:43:48;;;;;;;;;;;29.70;95.30;;;;;;8365223;28;19919;-67
2021/06/17 09:47:49;;;;;;;;;;;29.80;81.40;;;;;;8368508;28;20025;-67
2021/06/17 09:51:52;;;;;;;;;;;29.80;71.70;;;;;;8380373;28;19979;-68
2021/06/17 09:55:53;;;;;;;;;;;29.90;72.10;;;;;;8373437;28;19951;-67
2021/06/17 09:59:55;;;;;;;;;;;29.90;74.80;;;;;;8372004;28;19939;-67
2021/06/17 10:04:07;;;;;;;;;;;30.00;84.60;;;;;;8364857;28;19909;-69
2021/06/17 10:08:07;;;;;;;;;;;30.00;82.50;;;;;;8395956;28;20335;-69
2021/06/17 10:12:08;;;;;;;;;;;30.10;68.60;;;;;;8394819;28;19930;-69
2021/06/17 10:16:08;;;;;;;;;;;30.30;73.60;;;;;;8395902;28;20375;-69
2021/06/17 10:20:10;;;;;;;;;;;30.60;78.80;;;;;;8360304;28;20391;-68
2021/06/17 10:24:19;;;;;;;;;;;30.60;82.30;;;;;;8347994;28;19909;-68
2021/06/17 10:28:38;;;;;;;;;;;30.70;76.60;;;;;;8361235;28;19913;-68
2021/06/17 10:32:41;;;;;;;;;;;30.90;73.90;;;;;;8358412;28;19913;-68
2021/06/17 10:37:01;;;;;;;;;;;31.00;74.50;;;;;;8349538;28;19913;-68
2021/06/17 10:41:02;;;;;;;;;;;30.90;77.70;;;;;;8328813;28;19917;-69
2021/06/17 10:45:06;;;;;;;;;;;31.00;82.20;;;;;;8366931;28;19959;-68
2021/06/17 10:49:06;;;;;;;;;;;31.40;69.30;;;;;;8370513;28;19919;-69
2021/06/17 10:53:17;;;;;;;;;;;31.60;73.60;;;;;;8375338;28;19912;-69
2021/06/17 10:57:36;;;;;;;;;;;32.00;72.40;;;;;;8365604;28;20717;-69
2021/06/17 11:01:41;;;;;;;;;;;32.10;64.80;;;;;;8369800;28;20391;-67
2021/06/17 11:05:49;;;;;;;;;;;31.60;63.80;;;;;;8346278;28;20454;-68
2021/06/17 11:09:58;;;;;;;;;;;31.50;63.40;;;;;;8351843;28;19967;-67
2021/06/17 11:13:59;;;;;;;;;;;31.30;69.50;;;;;;8359262;28;20462;-69
2021/06/17 11:17:59;;;;;;;;;;;31.80;64.60;;;;;;8350603;28;19943;-69
2021/06/17 11:22:00;;;;;;;;;;;32.50;65.20;;;;;;8360008;28;20000;-68
2021/06/17 11:26:00;;;;;;;;;;;33.20;59.70;;;;;;8359562;28;19913;-67
2021/06/17 11:30:02;;;;;;;;;;;33.20;56.10;;;;;;8359341;28;19913;-68
2021/06/17 11:34:02;;;;;;;;;;;33.20;58.10;;;;;;8360121;28;19932;-68
2021/06/17 11:38:05;;;;;;;;;;;33.30;60.00;;;;;;8368107;28;19919;-69
2021/06/17 11:42:11;;;;;;;;;;;35.00;58.70;;;;;;8389766;28;20401;-68
2021/06/17 11:46:19;;;;;;;;;;;37.30;50.50;;;;;;8372956;28;19913;-69
2021/06/17 11:50:20;;;;;;;;;;;40.00;46.50;;;;;;8375060;28;19909;-68
2021/06/17 11:54:22;;;;;;;;;;;39.70;42.20;;;;;;8359135;28;20395;-68
2021/06/17 11:58:26;;;;;;;;;;;38.30;42.60;;;;;;8370941;28;19924;-68
2021/06/17 12:02:27;;;;;;;;;;;36.80;42.10;;;;;;8373014;28;21355;-69
2021/06/17 12:06:28;;;;;;;;;;;36.00;47.50;;;;;;8371924;28;21250;-68
2021/06/17 12:10:31;;;;;;;;;;;36.20;47.70;;;;;;8369518;28;20387;-68
2021/06/17 12:14:41;;;;;;;;;;;36.70;48.40;;;;;;8363264;28;20366;-70
2021/06/17 12:18:42;;;;;;;;;;;36.80;46.80;;;;;;8371029;28;19924;-69
2021/06/17 12:22:45;;;;;;;;;;;36.40;48.10;;;;;;8367493;28;19970;-70
2021/06/17 12:26:45;;;;;;;;;;;36.40;47.80;;;;;;8356327;28;19913;-71
2021/06/17 12:30:47;;;;;;;;;;;35.80;45.70;;;;;;8360458;28;19987;-67
2021/06/17 12:34:49;;;;;;;;;;;34.80;44.10;;;;;;8357243;28;19920;-67
2021/06/17 12:38:49;;;;;;;;;;;33.80;48.40;;;;;;8358420;28;20019;-68
2021/06/17 12:43:04;;;;;;;;;;;34.50;44.10;;;;;;8356961;28;19978;-68
2021/06/17 12:47:08;;;;;;;;;;;36.80;40.30;;;;;;8348225;28;19919;-69
2021/06/17 12:55:36;;;;;;;;;;;41.90;38.20;;;;;;8351698;28;19919;-69
2021/06/17 12:59:39;;;;;;;;;;;44.20;33.20;;;;;;8352595;28;19924;-69
2021/06/17 13:03:40;;;;;;;;;;;43.50;33.80;;;;;;8356636;28;20042;-69
2021/06/17 13:07:58;;;;;;;;;;;45.10;29.20;;;;;;8362732;28;19913;-69
2021/06/17 13:12:06;;;;;;;;;;;46.60;28.00;;;;;;8369373;28;19912;-68
2021/06/17 13:16:17;;;;;;;;;;;48.40;29.30;;;;;;8390728;28;19975;-70
2021/06/17 13:20:18;;;;;;;;;;;50.20;27.30;;;;;;8360790;28;20322;-70
2021/06/17 13:24:19;;;;;;;;;;;51.60;26.70;;;;;;8364065;28;20267;-69
2021/06/17 13:28:38;;;;;;;;;;;50.70;24.60;;;;;;8358505;28;19917;-70
2021/06/17 13:32:39;;;;;;;;;;;49.40;25.90;;;;;;8358304;28;19912;-70
2021/06/17 13:36:39;;;;;;;;;;;51.20;23.60;;;;;;8372520;28;20348;-71
2021/06/17 13:40:40;;;;;;;;;;;52.60;24.20;;;;;;8377097;28;19981;-69
2021/06/17 13:44:42;;;;;;;;;;;54.10;22.90;;;;;;8368743;28;19921;-69
2021/06/17 13:48:43;;;;;;;;;;;53.90;20.60;;;;;;8370453;28;19962;-69
2021/06/17 13:52:44;;;;;;;;;;;52.90;22.70;;;;;;8390399;28;20381;-69
2021/06/17 13:56:44;;;;;;;;;;;52.30;20.90;;;;;;8362754;28;19915;-69
2021/06/17 14:00:44;;;;;;;;;;;50.70;22.30;;;;;;8403539;22;19975;-71
2021/06/17 14:04:45;;;;;;;;;;;47.60;24.30;;;;;;8392343;28;19919;-72
2021/06/17 14:08:46;;;;;;;;;;;47.90;25.90;;;;;;8394580;28;20561;-72
2021/06/17 14:12:47;;;;;;;;;;;47.00;27.00;;;;;;8396301;28;19959;-72
2021/06/17 14:16:47;;;;;;;;;;;47.40;28.20;;;;;;8395812;28;19954;-70
2021/06/17 14:20:48;;;;;;;;;;;48.70;27.30;;;;;;8395215;28;20302;-71
2021/06/17 14:24:48;;;;;;;;;;;47.70;26.10;;;;;;8394527;28;20462;-72
2021/06/17 14:28:48;;;;;;;;;;;46.90;28.80;;;;;;8394431;28;20013;-72
2021/06/17 14:32:49;;;;;;;;;;;48.50;26.60;;;;;;8393483;28;19916;-73
2021/06/17 14:36:49;;;;;;;;;;;48.60;26.50;;;;;;8393115;28;19912;-74
2021/06/17 14:40:50;;;;;;;;;;;47.70;26.30;;;;;;8394190;28;19913;-71
2021/06/17 14:44:50;;;;;;;;;;;47.30;25.90;;;;;;8394375;28;19908;-72
2021/06/17 14:48:51;;;;;;;;;;;44.40;28.60;;;;;;8394155;28;19917;-71
2021/06/17 14:52:51;;;;;;;;;;;43.70;30.00;;;;;;8393629;28;20370;-71
2021/06/17 14:56:53;;;;;;;;;;;44.80;30.00;;;;;;8393018;28;19913;-74
2021/06/17 15:00:53;;;;;;;;;;;45.70;29.00;;;;;;8390974;28;19927;-67
2021/06/17 15:04:54;;;;;;;;;;;47.70;27.70;;;;;;8386319;28;19920;-66
2021/06/17 15:08:54;;;;;;;;;;;48.50;25.50;;;;;;8393372;28;19974;-66
2021/06/17 15:12:55;;;;;;;;;;;48.90;26.20;;;;;;8394090;28;19946;-66
2021/06/17 15:16:55;;;;;;;;;;;49.80;25.80;;;;;;8393987;28;19908;-67
2021/06/17 15:20:55;;;;;;;;;;;50.40;25.30;;;;;;8393911;28;19909;-66
2021/06/17 15:24:56;;;;;;;;;;;50.80;24.40;;;;;;8393428;28;19920;-66
2021/06/17 15:28:56;;;;;;;;;;;48.90;26.00;;;;;;8392536;28;20366;-66
2021/06/17 15:32:57;;;;;;;;;;;49.50;25.70;;;;;;8390080;28;20386;-66
2021/06/17 15:36:57;;;;;;;;;;;49.00;26.10;;;;;;8360325;28;19909;-66
2021/06/17 15:40:58;;;;;;;;;;;48.80;25.90;;;;;;8359544;28;19915;-66
2021/06/17 15:44:58;;;;;;;;;;;49.20;25.60;;;;;;8387820;28;20003;-66
2021/06/17 15:49:02;;;;;;;;;;;49.50;25.20;;;;;;8391105;28;20439;-66
2021/06/17 15:53:03;;;;;;;;;;;49.90;25.40;;;;;;8390654;28;19916;-67
2021/06/17 15:57:04;;;;;;;;;;;50.20;25.40;;;;;;8390069;28;20374;-67
2021/06/17 16:01:05;;;;;;;;;;;50.90;25.70;;;;;;8363452;28;19917;-66
2021/06/17 16:05:06;;;;;;;;;;;52.00;24.50;;;;;;8391738;28;19912;-67
2021/06/17 16:09:07;;;;;;;;;;;52.70;23.30;;;;;;8391744;28;19916;-66
2021/06/17 16:13:07;;;;;;;;;;;51.10;23.50;;;;;;8392178;28;19916;-67
2021/06/17 16:17:07;;;;;;;;;;;51.60;23.30;;;;;;8391561;28;19916;-67
2021/06/17 16:21:08;;;;;;;;;;;50.30;24.10;;;;;;8390648;28;19912;-66
2021/06/17 16:25:09;;;;;;;;;;;49.90;25.90;;;;;;8390588;28;19913;-67
2021/06/17 16:29:09;;;;;;;;;;;51.30;24.10;;;;;;8391240;28;19952;-66
2021/06/17 16:33:10;;;;;;;;;;;50.40;23.50;;;;;;8391562;28;19913;-66
2021/06/17 16:37:10;;;;;;;;;;;48.00;25.60;;;;;;8386588;28;19929;-67
2021/06/17 16:41:11;;;;;;;;;;;46.50;26.50;;;;;;8390048;28;19909;-65
2021/06/17 16:45:12;;;;;;;;;;;48.10;26.50;;;;;;8385572;28;19920;-65
2021/06/17 16:49:12;;;;;;;;;;;49.90;25.70;;;;;;8376754;28;19920;-66
2021/06/17 16:53:13;;;;;;;;;;;50.70;24.80;;;;;;8379237;28;19928;-66
2021/06/17 16:57:13;;;;;;;;;;;50.70;24.00;;;;;;8371201;28;19912;-66
2021/06/17 17:01:14;;;;;;;;;;;50.90;24.40;;;;;;8390017;28;19916;-65
2021/06/17 17:05:15;;;;;;;;;;;50.70;23.90;;;;;;8383684;28;20294;-65
2021/06/17 17:09:15;;;;;;;;;;;49.40;25.20;;;;;;8387049;28;19921;-65
2021/06/17 17:13:16;;;;;;;;;;;48.70;25.60;;;;;;8386808;28;19924;-65
2021/06/17 17:17:17;;;;;;;;;;;48.80;25.70;;;;;;8377355;28;19980;-66
2021/06/17 17:21:18;;;;;;;;;;;48.50;25.30;;;;;;8392623;28;19992;-66
2021/06/17 17:25:19;;;;;;;;;;;47.70;26.00;;;;;;8411770;28;19912;-66
2021/06/17 17:29:19;;;;;;;76.68;25.98;;;44.70;27.30;;;;;;8393663;28;20407;-65
2021/06/17 17:33:20;;;;;;;;;;;41.80;29.30;;;;;;8395835;28;20032;-65
2021/06/17 17:37:20;;;;;;;;;;;39.50;31.60;;;;;;8395717;28;19927;-68
2021/06/17 17:41:21;;;;;;;;;;;37.80;35.00;;;;;;8396323;28;19904;-68
2021/06/17 17:45:21;;;;;;;;;;;37.60;34.30;;;;;;8396187;28;19916;-68
2021/06/17 17:49:22;;;;;;;;;;;37.40;35.40;;;;;;8395453;28;20075;-70
2021/06/17 17:53:22;;;;;;;;;;;36.20;37.30;;;;;;8396128;28;20358;-67
2021/06/17 17:57:23;;;;;;;;;;;34.90;41.20;;;;;;8394645;28;19909;-67
2021/06/17 18:01:23;;;;;;;;;;;34.10;43.10;;;;;;8395546;28;19916;-67
2021/06/17 18:05:24;;;;;;;;;;;34.00;42.50;;;;;;8394584;28;19930;-69
2021/06/17 18:09:25;;;;;;;;;;;33.90;45.40;;;;;;8394099;28;19909;-68
2021/06/17 18:13:27;;;;;;;;;;;34.40;41.60;;;;;;8395104;28;19904;-68
2021/06/17 18:17:28;;;;;;;;;;;35.50;40.60;;;;;;8393463;28;19914;-67
2021/06/17 18:21:29;;;;;;;;;;;36.20;40.00;;;;;;8393982;28;19919;-67
2021/06/17 18:25:29;;;;;;;;;;;35.50;41.00;;;;;;8394702;28;19904;-69
2021/06/17 18:29:30;;;;;;;;;;;34.00;42.80;;;;;;8394796;28;19909;-68
2021/06/17 18:33:30;;;;;;;;;;;32.60;44.90;;;;;;8394012;28;19904;-68
2021/06/17 18:37:31;;;;;;;14.90;13.18;;;31.40;45.90;;;;;;8390313;28;20384;-67
2021/06/17 18:41:32;;;;;;;;;;;30.20;48.60;;;;;;8391517;28;20021;-67
2021/06/17 18:45:33;;;;;;;;;;;29.50;49.90;;;;;;8394130;28;20294;-66
2021/06/17 18:49:34;;;;;;;;;;;28.80;52.40;;;;;;8388223;28;20371;-67
2021/06/17 18:53:34;;;;;;;;;;;28.20;52.90;;;;;;8388183;28;19916;-66
2021/06/17 18:57:34;;;;;;;;;;;27.80;54.00;;;;;;8392572;28;19959;-66
2021/06/17 19:01:35;;;;;;;;;;;27.20;55.00;;;;;;8391889;28;19961;-66
2021/06/17 19:05:36;;;;;;;;;;;26.90;55.70;;;;;;8391995;28;19915;-66
2021/06/17 19:09:37;;;;;;;;;;;26.70;57.70;;;;;;8384479;28;19946;-66
2021/06/17 19:13:38;;;;;;;;;;;26.50;57.90;;;;;;8389696;28;19938;-67
2021/06/17 19:17:38;;;;;;;;;;;26.20;60.30;;;;;;8387835;28;19908;-66
2021/06/17 19:21:39;;;;;;;;;;;25.80;61.80;;;;;;8393186;28;19962;-66
2021/06/17 19:25:40;;;;;;;;;;;25.40;65.60;;;;;;8392290;28;19904;-67
2021/06/17 19:29:40;;;;;;;;;;;25.10;72.30;;;;;;8385079;28;19920;-66
2021/06/17 19:33:41;;;;;;;;;;;25.20;73.00;;;;;;8385006;28;19915;-66
2021/06/17 19:37:41;;;;;;;;;;;24.80;70.70;;;;;;8388991;28;19915;-67
2021/06/17 19:41:42;;;;;;;;;;;24.50;76.10;;;;;;8390055;28;19909;-66
2021/06/17 19:45:43;;;;;;;;;;;24.10;81.40;;;;;;8390986;28;19912;-66
2021/06/17 19:49:43;;;;;;;;;;;23.70;84.80;;;;;;8377571;28;19957;-66
2021/06/17 19:53:45;;;;;;;;;;;23.70;86.60;;;;;;8390450;28;20340;-65
2021/06/17 19:57:46;;;;;;;;;;;23.40;91.30;;;;;;8412631;22;19928;-63
2021/06/17 20:01:46;;;;;;;;;;;23.40;92.70;;;;;;8389651;28;20399;-63
2021/06/17 20:05:46;;;;;;;;;;;23.10;94.50;;;;;;8391251;28;19958;-64
2021/06/17 20:09:47;;;;;;;;;;;22.80;95.70;;;;;;8367961;28;19926;-64
2021/06/17 20:13:48;;;;;;;;;;;22.80;98.30;;;;;;8362548;28;19920;-64
2021/06/17 20:17:48;;;;;;;;;;;22.50;99.90;;;;;;8354648;28;19990;-63
2021/06/17 20:21:49;;;;;;;;;;;22.30;99.90;;;;;;8356136;28;19909;-63
2021/06/17 20:25:49;;;;;;;;;;;22.30;99.90;;;;;;8354749;28;20131;-63
2021/06/17 20:29:52;;;;;;;;;;;22.10;99.90;;;;;;8355255;28;19917;-63
2021/06/17 20:33:53;;;;;;;;;;;22.20;99.90;;;;;;8343214;28;19915;-63
2021/06/17 20:37:53;;;;;;;;;;;21.90;99.90;;;;;;8345330;28;19943;-63
2021/06/17 20:41:55;;;;;;;;;;;21.50;99.90;;;;;;8355322;28;19915;-63
2021/06/17 20:45:56;;;;;;;;;;;21.40;99.90;;;;;;8356049;28;19932;-63
2021/06/17 20:49:57;;;;;;;;;;;21.40;99.90;;;;;;8354715;28;19909;-63
2021/06/17 20:53:57;;;;;;;;;;;21.40;99.90;;;;;;8355469;28;19908;-63
2021/06/17 20:57:58;;;;;;;;;;;21.10;99.90;;;;;;8361140;28;20004;-63
2021/06/17 21:01:58;;;;;;;;;;;20.80;99.90;;;;;;8360695;28;19908;-63
2021/06/17 21:05:59;;;;;;;;;;;21.00;99.90;;;;;;8361718;28;19974;-61
2021/06/17 21:09:59;;;;;;;;;;;20.70;99.90;;;;;;8361528;28;19953;-63
2021/06/17 21:14:00;;;;;;;;;;;20.30;99.90;;;;;;8360311;28;20030;-63
2021/06/17 21:18:07;;;;;;;;;;;20.10;99.90;;;;;;8355901;28;20359;-63
2021/06/17 21:22:08;;;;;;;;;;;19.90;99.90;;;;;;8358148;28;19996;-63
2021/06/17 21:26:08;;;;;;;;;;;20.20;99.90;;;;;;8360552;28;20296;-63
2021/06/17 21:30:09;;;;;;;;;;;20.00;99.90;;;;;;8361174;28;19913;-63
2021/06/17 21:34:10;;;;;;;;;;;20.20;99.90;;;;;;8361267;28;20426;-63
2021/06/17 21:38:10;;;;;;;;;;;20.10;99.90;;;;;;8361260;28;20360;-63
2021/06/17 21:42:11;;;;;;;;;;;19.70;99.90;;;;;;8361327;28;19908;-63
2021/06/17 21:46:11;;;;;;;;;;;19.50;99.90;;;;;;8361514;28;19911;-63
2021/06/17 21:50:12;;;;;;;;;;;19.60;99.90;;;;;;8360989;28;19947;-63
2021/06/17 21:54:12;;;;;;;;;;;19.40;99.90;;;;;;8360527;28;19908;-63
2021/06/17 21:58:13;;;;;;;;;;;19.30;99.90;;;;;;8359559;28;20121;-63
2021/06/17 22:02:13;;;;;;;;;;;19.20;99.90;;;;;;8359100;28;19912;-63
2021/06/17 22:06:13;;;;;;;;;;;19.00;99.90;;;;;;8356135;28;20294;-63
2021/06/17 22:10:16;;;;;;;;;;;18.90;99.90;;;;;;8363087;28;19916;-63
2021/06/17 22:14:16;;;;;;;;;;;18.90;99.90;;;;;;8361741;28;20005;-63
2021/06/17 22:18:18;;;;;;;;;;;19.00;99.90;;;;;;8362574;28;19920;-63
2021/06/17 22:22:19;;;;;;;;;;;18.90;99.90;;;;;;8362817;28;19995;-63
2021/06/17 22:26:20;;;;;;;;;;;18.60;99.90;;;;;;8362667;28;19905;-63
2021/06/17 22:30:20;;;;;;;;;;;18.70;99.90;;;;;;8361014;28;19916;-63
2021/06/17 22:34:21;;;;;;;;;;;18.50;99.90;;;;;;8362717;28;19947;-63
2021/06/17 22:38:22;;;;;;;;;;;18.20;99.90;;;;;;8362379;28;20428;-63
2021/06/17 22:42:22;;;;;;;;;;;18.20;99.90;;;;;;8362366;28;19915;-63
2021/06/17 22:46:23;;;;;;;;;;;18.10;99.90;;;;;;8362247;28;20042;-63
2021/06/17 22:50:23;;;;;;;;;;;18.40;99.90;;;;;;8362161;28;19952;-62
2021/06/17 22:54:24;;;;;;;;;;;18.30;99.90;;;;;;8362029;28;19943;-63
2021/06/17 22:58:24;;;;;;;;;;;18.10;99.90;;;;;;8361798;28;19948;-63
2021/06/17 23:02:26;;;;;;;;;;;18.20;99.90;;;;;;8361767;28;19956;-63
2021/06/17 23:06:26;;;;;;;;;;;18.30;99.90;;;;;;8361292;28;20317;-63
2021/06/17 23:10:27;;;;;;;;;;;18.00;99.90;;;;;;8361791;28;19912;-63
2021/06/17 23:14:28;;;;;;;;;;;17.80;99.90;;;;;;8361852;28;19977;-63
2021/06/17 23:18:29;;;;;;;;;;;17.50;99.90;;;;;;8359924;28;19950;-63
2021/06/17 23:22:29;;;;;;;;;;;17.40;99.90;;;;;;8361414;28;19978;-63
2021/06/17 23:26:30;;;;;;;;;;;17.60;99.90;;;;;;8361086;28;19992;-63
2021/06/17 23:30:30;;;;;;;;;;;17.60;99.90;;;;;;8360946;28;19968;-63
2021/06/17 23:34:31;;;;;;;;;;;17.40;99.90;;;;;;8361242;28;19943;-63